createdAt,value
2022-11-26T00:01:26.801Z,0
2022-11-26T00:07:27.001Z,0
2022-11-26T00:13:26.755Z,0
2022-11-26T00:19:26.771Z,0
2022-11-26T00:25:26.787Z,0
2022-11-26T00:31:26.821Z,0
2022-11-26T00:37:26.792Z,0
2022-11-26T00:43:26.784Z,0
2022-11-26T00:49:26.778Z,0
2022-11-26T00:55:26.771Z,0
2022-11-26T01:01:26.811Z,0
2022-11-26T01:07:26.876Z,0
2022-11-26T01:13:26.796Z,0
2022-11-26T01:19:26.760Z,0
2022-11-26T01:25:26.779Z,0
2022-11-26T01:31:26.882Z,0
2022-11-26T01:37:26.751Z,0
2022-11-26T01:43:26.765Z,0
2022-11-26T01:49:26.794Z,0
2022-11-26T01:55:26.748Z,0
2022-11-26T02:01:26.826Z,0
2022-11-26T02:07:26.846Z,0
2022-11-26T02:13:26.764Z,0
2022-11-26T02:19:26.788Z,0
2022-11-26T02:25:26.801Z,0
2022-11-26T02:31:26.835Z,0
2022-11-26T02:37:26.754Z,0
2022-11-26T02:43:26.810Z,0
2022-11-26T02:49:26.780Z,0
2022-11-26T02:55:26.759Z,0
2022-11-26T03:01:26.866Z,0
2022-11-26T03:07:26.832Z,0
2022-11-26T03:13:26.764Z,0
2022-11-26T03:19:26.787Z,0
2022-11-26T03:25:26.771Z,0
2022-11-26T03:31:26.822Z,0
2022-11-26T03:37:26.794Z,0
2022-11-26T03:43:26.753Z,0
2022-11-26T03:49:26.766Z,0
2022-11-26T03:55:26.796Z,0
2022-11-26T04:01:26.791Z,0
2022-11-26T04:07:26.818Z,0
2022-11-26T04:13:26.787Z,0
2022-11-26T04:19:26.746Z,0
2022-11-26T04:25:26.777Z,0
2022-11-26T04:31:26.833Z,0
2022-11-26T04:37:26.741Z,0
2022-11-26T04:43:26.784Z,0
2022-11-26T04:49:26.780Z,0
2022-11-26T04:55:26.764Z,0
2022-11-26T05:01:26.808Z,0
2022-11-26T05:07:26.866Z,0
2022-11-26T05:13:26.768Z,0
2022-11-26T05:19:26.742Z,0
2022-11-26T05:25:26.767Z,0
2022-11-26T05:31:26.800Z,0
2022-11-26T05:37:26.740Z,0
2022-11-26T05:43:26.775Z,0
2022-11-26T05:49:26.753Z,0
2022-11-26T05:55:26.792Z,0
2022-11-26T06:01:26.787Z,0
2022-11-26T06:07:26.863Z,0
2022-11-26T06:13:26.740Z,0
2022-11-26T06:19:26.801Z,0
2022-11-26T06:25:26.734Z,0
2022-11-26T06:31:26.757Z,0
2022-11-26T06:37:26.782Z,0
2022-11-26T06:43:26.750Z,0
2022-11-26T06:49:26.736Z,0
2022-11-26T06:55:26.764Z,0
2022-11-26T07:01:26.846Z,0
2022-11-26T07:07:26.835Z,0
2022-11-26T07:13:26.773Z,0
2022-11-26T07:19:26.767Z,0
2022-11-26T07:25:26.729Z,0
2022-11-26T07:31:26.828Z,0
2022-11-26T07:37:26.721Z,0
2022-11-26T07:43:26.729Z,0
2022-11-26T07:49:26.744Z,0
2022-11-26T07:55:26.738Z,0
2022-11-26T08:01:26.794Z,0
2022-11-26T08:07:29.435Z,0
2022-11-26T08:13:26.760Z,0
2022-11-26T08:19:26.761Z,0
2022-11-26T08:25:26.748Z,0
2022-11-26T08:31:26.786Z,0
2022-11-26T08:37:26.730Z,0
2022-11-26T08:43:45.041Z,0
2022-11-26T08:49:26.728Z,0
2022-11-26T08:55:27.126Z,0
2022-11-26T09:01:26.882Z,0
2022-11-26T09:07:26.780Z,0
2022-11-26T09:13:26.756Z,0.3
2022-11-26T09:19:26.750Z,1.7
2022-11-26T09:25:26.740Z,3.9
2022-11-26T09:31:26.747Z,3.9
2022-11-26T09:37:26.765Z,4.2
2022-11-26T09:43:26.732Z,4.7
2022-11-26T09:49:26.738Z,4.4
2022-11-26T09:55:26.763Z,2.9
2022-11-26T10:01:26.780Z,1.9
2022-11-26T10:07:26.761Z,1.1
2022-11-26T10:13:26.751Z,0.3
2022-11-26T10:19:26.742Z,0.5
2022-11-26T10:25:26.765Z,0.7
2022-11-26T10:31:26.848Z,1.2
2022-11-26T10:37:26.737Z,1.9
2022-11-26T10:43:26.755Z,1.2
2022-11-26T10:49:26.757Z,1
2022-11-26T10:55:26.778Z,0.7
2022-11-26T11:01:26.828Z,0.2
2022-11-26T11:07:26.791Z,0
2022-11-26T11:13:26.720Z,0
2022-11-26T11:19:26.737Z,0
2022-11-26T11:25:26.733Z,0
2022-11-26T11:31:26.848Z,0
2022-11-26T11:37:26.705Z,0
2022-11-26T11:43:26.783Z,0
2022-11-26T11:49:26.728Z,0
2022-11-26T11:55:26.752Z,0
2022-11-26T12:01:26.756Z,0
2022-11-26T12:07:26.758Z,0
2022-11-26T12:13:26.729Z,0
2022-11-26T12:19:26.776Z,0
2022-11-26T12:25:26.726Z,0
2022-11-26T12:31:26.799Z,0
2022-11-26T12:37:26.773Z,0
2022-11-26T12:43:26.704Z,0
2022-11-26T12:49:26.733Z,0
2022-11-26T12:55:26.731Z,0
2022-11-26T13:01:26.746Z,0
2022-11-26T13:07:26.740Z,0
2022-11-26T13:13:26.752Z,0
2022-11-26T13:19:26.706Z,0
2022-11-26T13:25:26.715Z,0
2022-11-26T13:31:26.823Z,0
2022-11-26T13:37:26.724Z,0
2022-11-26T13:43:26.722Z,0
2022-11-26T13:49:26.748Z,0
2022-11-26T13:55:26.719Z,0
2022-11-26T14:01:26.805Z,0
2022-11-26T14:07:26.800Z,0
2022-11-26T14:13:26.722Z,0
2022-11-26T14:19:26.738Z,0
2022-11-26T14:25:26.753Z,0
2022-11-26T14:31:26.766Z,0
2022-11-26T14:37:26.717Z,0
2022-11-26T14:43:26.754Z,0
2022-11-26T14:49:26.762Z,0
2022-11-26T14:55:26.730Z,0
2022-11-26T15:01:26.730Z,0
2022-11-26T15:07:26.756Z,0
2022-11-26T15:13:26.741Z,0
2022-11-26T15:19:26.734Z,0
2022-11-26T15:25:26.726Z,0
2022-11-26T15:31:26.822Z,0
2022-11-26T15:37:26.752Z,0
2022-11-26T15:43:26.745Z,0
2022-11-26T15:49:26.726Z,0
2022-11-26T15:55:26.752Z,0
2022-11-26T16:01:26.791Z,0
2022-11-26T16:07:26.755Z,0
2022-11-26T16:13:26.731Z,0
2022-11-26T16:19:26.709Z,0
2022-11-26T16:25:26.774Z,0
2022-11-26T16:31:26.804Z,0
2022-11-26T16:37:26.721Z,0
2022-11-26T16:43:26.720Z,0
2022-11-26T16:49:26.765Z,0
2022-11-26T16:55:26.735Z,0
2022-11-26T17:01:26.729Z,0
2022-11-26T17:07:26.791Z,0
2022-11-26T17:13:26.742Z,0
2022-11-26T17:19:26.746Z,0
2022-11-26T17:25:26.758Z,0
2022-11-26T17:31:26.784Z,0
2022-11-26T17:37:26.727Z,0
2022-11-26T17:43:26.731Z,0
2022-11-26T17:49:26.718Z,0
2022-11-26T17:55:26.722Z,0
2022-11-26T18:01:26.804Z,0
2022-11-26T18:07:26.772Z,0
2022-11-26T18:13:26.691Z,0
2022-11-26T18:19:26.742Z,0
2022-11-26T18:25:26.709Z,0
2022-11-26T18:31:26.769Z,0
2022-11-26T18:37:26.718Z,0
2022-11-26T18:43:26.716Z,0
2022-11-26T18:49:26.707Z,0
2022-11-26T18:55:26.710Z,0
2022-11-26T19:01:26.745Z,0
2022-11-26T19:07:26.735Z,0
2022-11-26T19:13:26.738Z,0
2022-11-26T19:19:26.700Z,0
2022-11-26T19:25:26.702Z,0
2022-11-26T19:31:26.847Z,0
2022-11-26T19:37:26.702Z,0
2022-11-26T19:43:26.703Z,0
2022-11-26T19:49:26.726Z,0
2022-11-26T19:55:26.721Z,0
2022-11-26T20:01:26.857Z,0
2022-11-26T20:07:26.781Z,0
2022-11-26T20:13:26.713Z,0
2022-11-26T20:19:26.678Z,0
2022-11-26T20:25:26.744Z,0
2022-11-26T20:31:26.759Z,0
2022-11-26T20:37:26.751Z,0
2022-11-26T20:43:26.724Z,0
2022-11-26T20:49:32.242Z,0
2022-11-26T20:55:26.704Z,0
2022-11-26T21:01:26.754Z,0
2022-11-26T21:07:26.741Z,0
2022-11-26T21:13:26.697Z,0
2022-11-26T21:19:26.717Z,0
2022-11-26T21:25:26.691Z,0
2022-11-26T21:31:26.690Z,0
2022-11-26T21:37:26.705Z,0
2022-11-26T21:43:26.687Z,0
2022-11-26T21:49:26.697Z,0
2022-11-26T21:55:26.716Z,0
2022-11-26T22:01:26.732Z,0
2022-11-26T22:07:26.721Z,0
2022-11-26T22:13:26.712Z,0
2022-11-26T22:19:26.691Z,0
2022-11-26T22:25:26.693Z,0
2022-11-26T22:31:26.793Z,0
2022-11-26T22:37:26.761Z,0
2022-11-26T22:43:26.683Z,0
2022-11-26T22:49:26.761Z,0
2022-11-26T22:55:26.696Z,0
2022-11-26T23:01:26.684Z,0
2022-11-26T23:07:26.786Z,0
2022-11-26T23:13:26.676Z,0
2022-11-26T23:19:26.667Z,0
2022-11-26T23:25:26.695Z,0
2022-11-26T23:31:26.789Z,0
2022-11-26T23:37:26.683Z,0
2022-11-26T23:43:26.708Z,0
2022-11-26T23:49:26.689Z,0
2022-11-26T23:55:26.671Z,0
